sensor_id;sensor_type;location;lat;lon;timestamp;P1;durP1;ratioP1;P2;durP2;ratioP2
15681;SDS011;7941;50.966;6.978;2023-03-31T00:01:16;4.67;;;1.90;;
15681;SDS011;7941;50.966;6.978;2023-03-31T00:03:43;4.30;;;1.80;;
15681;SDS011;7941;50.966;6.978;2023-03-31T00:06:10;4.47;;;1.77;;
15681;SDS011;7941;50.966;6.978;2023-03-31T00:08:42;6.47;;;2.10;;
15681;SDS011;7941;50.966;6.978;2023-03-31T00:11:09;7.40;;;2.30;;
15681;SDS011;7941;50.966;6.978;2023-03-31T00:13:35;6.63;;;1.70;;
15681;SDS011;7941;50.966;6.978;2023-03-31T00:16:06;6.87;;;2.43;;
15681;SDS011;7941;50.966;6.978;2023-03-31T00:18:32;5.43;;;1.70;;
15681;SDS011;7941;50.966;6.978;2023-03-31T00:21:32;5.70;;;2.10;;
15681;SDS011;7941;50.966;6.978;2023-03-31T00:24:08;7.93;;;2.40;;
15681;SDS011;7941;50.966;6.978;2023-03-31T00:26:35;7.43;;;2.13;;
15681;SDS011;7941;50.966;6.978;2023-03-31T00:29:02;4.97;;;1.87;;
15681;SDS011;7941;50.966;6.978;2023-03-31T00:31:28;6.73;;;2.30;;
15681;SDS011;7941;50.966;6.978;2023-03-31T00:33:54;7.57;;;2.80;;
15681;SDS011;7941;50.966;6.978;2023-03-31T00:36:21;10.67;;;2.63;;
15681;SDS011;7941;50.966;6.978;2023-03-31T00:38:58;8.67;;;2.40;;
15681;SDS011;7941;50.966;6.978;2023-03-31T00:41:24;9.27;;;2.33;;
15681;SDS011;7941;50.966;6.978;2023-03-31T00:49:10;5.60;;;2.23;;
15681;SDS011;7941;50.966;6.978;2023-03-31T00:51:37;8.33;;;2.40;;
15681;SDS011;7941;50.966;6.978;2023-03-31T00:54:04;5.33;;;2.80;;
15681;SDS011;7941;50.966;6.978;2023-03-31T00:56:34;8.30;;;2.93;;
15681;SDS011;7941;50.966;6.978;2023-03-31T00:59:02;5.60;;;2.30;;
15681;SDS011;7941;50.966;6.978;2023-03-31T01:01:28;6.67;;;2.63;;
15681;SDS011;7941;50.966;6.978;2023-03-31T01:03:55;8.27;;;2.43;;
15681;SDS011;7941;50.966;6.978;2023-03-31T01:06:23;11.90;;;3.03;;
15681;SDS011;7941;50.966;6.978;2023-03-31T01:08:50;8.37;;;3.07;;
15681;SDS011;7941;50.966;6.978;2023-03-31T01:11:20;7.67;;;2.90;;
15681;SDS011;7941;50.966;6.978;2023-03-31T01:13:48;9.27;;;3.57;;
15681;SDS011;7941;50.966;6.978;2023-03-31T01:16:17;13.57;;;3.67;;
15681;SDS011;7941;50.966;6.978;2023-03-31T01:18:43;7.13;;;2.43;;
15681;SDS011;7941;50.966;6.978;2023-03-31T01:42:40;8.40;;;3.07;;
15681;SDS011;7941;50.966;6.978;2023-03-31T01:47:57;11.80;;;2.60;;
15681;SDS011;7941;50.966;6.978;2023-03-31T01:58:40;7.50;;;2.87;;
15681;SDS011;7941;50.966;6.978;2023-03-31T02:01:15;7.43;;;2.53;;
15681;SDS011;7941;50.966;6.978;2023-03-31T02:03:52;8.33;;;2.50;;
15681;SDS011;7941;50.966;6.978;2023-03-31T02:06:24;11.43;;;2.53;;
15681;SDS011;7941;50.966;6.978;2023-03-31T02:09:03;9.93;;;2.67;;
15681;SDS011;7941;50.966;6.978;2023-03-31T02:11:31;9.40;;;2.80;;
15681;SDS011;7941;50.966;6.978;2023-03-31T02:13:59;10.77;;;2.80;;
15681;SDS011;7941;50.966;6.978;2023-03-31T02:16:28;12.13;;;3.27;;
15681;SDS011;7941;50.966;6.978;2023-03-31T02:18:56;8.63;;;3.07;;
15681;SDS011;7941;50.966;6.978;2023-03-31T02:21:29;8.60;;;2.87;;
15681;SDS011;7941;50.966;6.978;2023-03-31T02:23:56;12.10;;;3.73;;
15681;SDS011;7941;50.966;6.978;2023-03-31T02:26:26;14.67;;;4.20;;
15681;SDS011;7941;50.966;6.978;2023-03-31T02:28:53;18.37;;;4.67;;
15681;SDS011;7941;50.966;6.978;2023-03-31T02:34:01;16.53;;;4.53;;
15681;SDS011;7941;50.966;6.978;2023-03-31T02:36:28;13.13;;;4.07;;
15681;SDS011;7941;50.966;6.978;2023-03-31T02:38:55;16.03;;;4.80;;
15681;SDS011;7941;50.966;6.978;2023-03-31T02:41:25;13.70;;;4.30;;
15681;SDS011;7941;50.966;6.978;2023-03-31T02:43:51;15.97;;;3.77;;
15681;SDS011;7941;50.966;6.978;2023-03-31T02:46:17;13.20;;;4.17;;
15681;SDS011;7941;50.966;6.978;2023-03-31T02:48:47;18.43;;;4.90;;
15681;SDS011;7941;50.966;6.978;2023-03-31T03:06:41;11.30;;;3.43;;
15681;SDS011;7941;50.966;6.978;2023-03-31T03:10:11;15.77;;;3.93;;
15681;SDS011;7941;50.966;6.978;2023-03-31T03:12:14;10.80;;;3.97;;
15681;SDS011;7941;50.966;6.978;2023-03-31T03:14:51;13.17;;;4.43;;
15681;SDS011;7941;50.966;6.978;2023-03-31T03:17:31;11.23;;;4.47;;
15681;SDS011;7941;50.966;6.978;2023-03-31T03:19:59;13.00;;;4.40;;
15681;SDS011;7941;50.966;6.978;2023-03-31T03:22:25;11.93;;;3.60;;
15681;SDS011;7941;50.966;6.978;2023-03-31T03:24:51;14.43;;;4.53;;
15681;SDS011;7941;50.966;6.978;2023-03-31T03:27:18;11.90;;;3.97;;
15681;SDS011;7941;50.966;6.978;2023-03-31T03:29:48;9.77;;;4.10;;
15681;SDS011;7941;50.966;6.978;2023-03-31T03:32:15;16.60;;;3.97;;
15681;SDS011;7941;50.966;6.978;2023-03-31T03:34:41;13.13;;;4.23;;
15681;SDS011;7941;50.966;6.978;2023-03-31T03:37:08;14.43;;;3.57;;
15681;SDS011;7941;50.966;6.978;2023-03-31T03:39:34;11.57;;;3.57;;
15681;SDS011;7941;50.966;6.978;2023-03-31T03:42:01;8.73;;;3.30;;
15681;SDS011;7941;50.966;6.978;2023-03-31T03:44:27;8.93;;;3.03;;
15681;SDS011;7941;50.966;6.978;2023-03-31T03:46:54;9.83;;;3.13;;
15681;SDS011;7941;50.966;6.978;2023-03-31T03:49:20;11.10;;;3.33;;
15681;SDS011;7941;50.966;6.978;2023-03-31T03:51:46;9.77;;;3.17;;
15681;SDS011;7941;50.966;6.978;2023-03-31T03:54:12;11.07;;;3.33;;
15681;SDS011;7941;50.966;6.978;2023-03-31T03:56:38;9.93;;;3.37;;
15681;SDS011;7941;50.966;6.978;2023-03-31T03:59:04;8.53;;;3.60;;
15681;SDS011;7941;50.966;6.978;2023-03-31T04:01:31;9.57;;;3.40;;
15681;SDS011;7941;50.966;6.978;2023-03-31T04:03:57;9.43;;;3.07;;
15681;SDS011;7941;50.966;6.978;2023-03-31T04:06:23;10.07;;;2.97;;
15681;SDS011;7941;50.966;6.978;2023-03-31T04:08:51;10.27;;;4.67;;
15681;SDS011;7941;50.966;6.978;2023-03-31T04:11:17;9.57;;;3.80;;
15681;SDS011;7941;50.966;6.978;2023-03-31T04:13:44;9.47;;;3.60;;
15681;SDS011;7941;50.966;6.978;2023-03-31T04:16:10;11.20;;;3.83;;
15681;SDS011;7941;50.966;6.978;2023-03-31T04:18:36;7.90;;;3.40;;
15681;SDS011;7941;50.966;6.978;2023-03-31T04:21:07;10.60;;;3.13;;
15681;SDS011;7941;50.966;6.978;2023-03-31T04:23:37;13.57;;;4.00;;
15681;SDS011;7941;50.966;6.978;2023-03-31T04:26:07;10.33;;;3.13;;
15681;SDS011;7941;50.966;6.978;2023-03-31T04:28:34;7.63;;;3.13;;
15681;SDS011;7941;50.966;6.978;2023-03-31T04:31:01;8.13;;;3.33;;
15681;SDS011;7941;50.966;6.978;2023-03-31T04:33:27;8.77;;;3.30;;
15681;SDS011;7941;50.966;6.978;2023-03-31T04:35:54;8.60;;;2.87;;
15681;SDS011;7941;50.966;6.978;2023-03-31T04:38:21;10.97;;;3.30;;
15681;SDS011;7941;50.966;6.978;2023-03-31T04:40:50;10.70;;;3.00;;
15681;SDS011;7941;50.966;6.978;2023-03-31T04:43:17;8.30;;;2.73;;
15681;SDS011;7941;50.966;6.978;2023-03-31T04:45:44;9.63;;;2.83;;
15681;SDS011;7941;50.966;6.978;2023-03-31T04:48:10;6.50;;;2.97;;
15681;SDS011;7941;50.966;6.978;2023-03-31T04:50:36;10.87;;;3.23;;
15681;SDS011;7941;50.966;6.978;2023-03-31T04:53:03;9.27;;;2.90;;
15681;SDS011;7941;50.966;6.978;2023-03-31T04:55:29;11.17;;;2.90;;
15681;SDS011;7941;50.966;6.978;2023-03-31T04:57:55;8.23;;;2.70;;
15681;SDS011;7941;50.966;6.978;2023-03-31T05:00:22;7.67;;;2.60;;
15681;SDS011;7941;50.966;6.978;2023-03-31T05:02:49;8.17;;;2.70;;
15681;SDS011;7941;50.966;6.978;2023-03-31T05:05:15;10.27;;;3.47;;
15681;SDS011;7941;50.966;6.978;2023-03-31T05:07:41;9.33;;;4.37;;
15681;SDS011;7941;50.966;6.978;2023-03-31T05:10:08;8.33;;;3.10;;
15681;SDS011;7941;50.966;6.978;2023-03-31T05:12:35;10.20;;;5.00;;
15681;SDS011;7941;50.966;6.978;2023-03-31T05:15:02;4.57;;;3.30;;
15681;SDS011;7941;50.966;6.978;2023-03-31T05:17:32;6.83;;;3.97;;
15681;SDS011;7941;50.966;6.978;2023-03-31T05:19:58;8.87;;;4.80;;
15681;SDS011;7941;50.966;6.978;2023-03-31T05:22:26;6.87;;;3.10;;
15681;SDS011;7941;50.966;6.978;2023-03-31T05:24:52;6.40;;;3.33;;
15681;SDS011;7941;50.966;6.978;2023-03-31T05:27:18;5.90;;;3.80;;
15681;SDS011;7941;50.966;6.978;2023-03-31T05:29:46;9.00;;;3.50;;
15681;SDS011;7941;50.966;6.978;2023-03-31T05:32:12;8.67;;;3.50;;
15681;SDS011;7941;50.966;6.978;2023-03-31T05:34:38;5.47;;;2.87;;
15681;SDS011;7941;50.966;6.978;2023-03-31T05:37:04;6.60;;;2.93;;
15681;SDS011;7941;50.966;6.978;2023-03-31T05:39:30;9.13;;;5.60;;
15681;SDS011;7941;50.966;6.978;2023-03-31T05:41:57;8.60;;;6.07;;
15681;SDS011;7941;50.966;6.978;2023-03-31T05:44:24;6.93;;;2.63;;
15681;SDS011;7941;50.966;6.978;2023-03-31T05:46:51;5.73;;;3.23;;
15681;SDS011;7941;50.966;6.978;2023-03-31T05:49:17;5.20;;;2.20;;
15681;SDS011;7941;50.966;6.978;2023-03-31T05:51:44;5.70;;;2.10;;
15681;SDS011;7941;50.966;6.978;2023-03-31T05:54:11;5.73;;;2.37;;
15681;SDS011;7941;50.966;6.978;2023-03-31T05:56:37;7.20;;;2.83;;
15681;SDS011;7941;50.966;6.978;2023-03-31T05:59:03;5.60;;;2.70;;
15681;SDS011;7941;50.966;6.978;2023-03-31T06:01:29;4.90;;;2.43;;
15681;SDS011;7941;50.966;6.978;2023-03-31T06:03:56;6.50;;;2.57;;
15681;SDS011;7941;50.966;6.978;2023-03-31T06:06:22;3.07;;;1.97;;
15681;SDS011;7941;50.966;6.978;2023-03-31T06:08:49;4.63;;;2.07;;
15681;SDS011;7941;50.966;6.978;2023-03-31T06:11:19;6.40;;;2.03;;
15681;SDS011;7941;50.966;6.978;2023-03-31T06:13:48;5.57;;;1.77;;
15681;SDS011;7941;50.966;6.978;2023-03-31T06:16:15;4.43;;;2.30;;
15681;SDS011;7941;50.966;6.978;2023-03-31T06:18:41;6.27;;;1.63;;
15681;SDS011;7941;50.966;6.978;2023-03-31T06:21:10;5.00;;;3.37;;
15681;SDS011;7941;50.966;6.978;2023-03-31T06:23:37;3.13;;;1.70;;
15681;SDS011;7941;50.966;6.978;2023-03-31T06:26:04;1.93;;;1.40;;
15681;SDS011;7941;50.966;6.978;2023-03-31T06:28:32;1.70;;;1.50;;
15681;SDS011;7941;50.966;6.978;2023-03-31T06:31:03;4.97;;;1.30;;
15681;SDS011;7941;50.966;6.978;2023-03-31T06:33:30;1.83;;;1.10;;
15681;SDS011;7941;50.966;6.978;2023-03-31T06:35:57;2.43;;;1.40;;
15681;SDS011;7941;50.966;6.978;2023-03-31T06:38:25;1.63;;;1.30;;
15681;SDS011;7941;50.966;6.978;2023-03-31T06:40:51;2.37;;;1.10;;
15681;SDS011;7941;50.966;6.978;2023-03-31T06:43:18;1.90;;;1.30;;
15681;SDS011;7941;50.966;6.978;2023-03-31T06:45:44;2.63;;;1.20;;
15681;SDS011;7941;50.966;6.978;2023-03-31T06:48:11;2.90;;;1.20;;
15681;SDS011;7941;50.966;6.978;2023-03-31T06:50:38;3.27;;;1.70;;
15681;SDS011;7941;50.966;6.978;2023-03-31T06:53:05;3.80;;;1.37;;
15681;SDS011;7941;50.966;6.978;2023-03-31T06:55:31;4.50;;;1.70;;
15681;SDS011;7941;50.966;6.978;2023-03-31T06:57:58;2.37;;;1.23;;
15681;SDS011;7941;50.966;6.978;2023-03-31T07:00:26;1.17;;;1.00;;
15681;SDS011;7941;50.966;6.978;2023-03-31T07:02:52;2.13;;;0.90;;
15681;SDS011;7941;50.966;6.978;2023-03-31T07:05:19;2.67;;;1.17;;
15681;SDS011;7941;50.966;6.978;2023-03-31T07:07:51;2.13;;;1.10;;
15681;SDS011;7941;50.966;6.978;2023-03-31T07:10:17;2.93;;;1.20;;
15681;SDS011;7941;50.966;6.978;2023-03-31T07:12:43;1.40;;;1.00;;
15681;SDS011;7941;50.966;6.978;2023-03-31T07:15:10;1.63;;;1.20;;
15681;SDS011;7941;50.966;6.978;2023-03-31T07:17:36;2.40;;;1.50;;
15681;SDS011;7941;50.966;6.978;2023-03-31T07:20:06;0.90;;;0.90;;
15681;SDS011;7941;50.966;6.978;2023-03-31T07:22:41;1.40;;;1.00;;
15681;SDS011;7941;50.966;6.978;2023-03-31T07:25:08;1.73;;;1.17;;
15681;SDS011;7941;50.966;6.978;2023-03-31T07:27:35;1.67;;;0.93;;
15681;SDS011;7941;50.966;6.978;2023-03-31T07:30:02;1.40;;;1.20;;
15681;SDS011;7941;50.966;6.978;2023-03-31T07:32:28;2.03;;;1.10;;
15681;SDS011;7941;50.966;6.978;2023-03-31T07:34:55;2.00;;;0.97;;
15681;SDS011;7941;50.966;6.978;2023-03-31T07:37:21;2.33;;;1.20;;
15681;SDS011;7941;50.966;6.978;2023-03-31T07:39:47;0.93;;;0.80;;
15681;SDS011;7941;50.966;6.978;2023-03-31T07:42:13;3.10;;;1.30;;
15681;SDS011;7941;50.966;6.978;2023-03-31T07:44:40;1.13;;;0.90;;
15681;SDS011;7941;50.966;6.978;2023-03-31T07:47:06;2.10;;;1.33;;
15681;SDS011;7941;50.966;6.978;2023-03-31T07:49:32;1.20;;;1.10;;
15681;SDS011;7941;50.966;6.978;2023-03-31T07:51:59;1.30;;;1.20;;
15681;SDS011;7941;50.966;6.978;2023-03-31T07:54:26;2.53;;;1.53;;
15681;SDS011;7941;50.966;6.978;2023-03-31T07:56:52;3.60;;;2.20;;
15681;SDS011;7941;50.966;6.978;2023-03-31T07:59:19;1.53;;;1.10;;
15681;SDS011;7941;50.966;6.978;2023-03-31T08:01:46;1.40;;;1.27;;
15681;SDS011;7941;50.966;6.978;2023-03-31T08:04:12;1.30;;;0.83;;
15681;SDS011;7941;50.966;6.978;2023-03-31T08:06:38;1.27;;;1.10;;
15681;SDS011;7941;50.966;6.978;2023-03-31T08:09:05;4.63;;;2.77;;
15681;SDS011;7941;50.966;6.978;2023-03-31T08:11:32;4.37;;;1.47;;
15681;SDS011;7941;50.966;6.978;2023-03-31T08:13:58;3.23;;;1.77;;
15681;SDS011;7941;50.966;6.978;2023-03-31T08:16:24;1.73;;;1.00;;
15681;SDS011;7941;50.966;6.978;2023-03-31T08:18:51;1.47;;;1.00;;
15681;SDS011;7941;50.966;6.978;2023-03-31T08:21:17;2.73;;;1.30;;
15681;SDS011;7941;50.966;6.978;2023-03-31T08:23:43;1.67;;;0.93;;
15681;SDS011;7941;50.966;6.978;2023-03-31T08:28:36;2.70;;;0.93;;
15681;SDS011;7941;50.966;6.978;2023-03-31T08:31:06;2.67;;;1.43;;
15681;SDS011;7941;50.966;6.978;2023-03-31T08:33:32;6.73;;;2.93;;
15681;SDS011;7941;50.966;6.978;2023-03-31T08:36:05;3.20;;;1.77;;
15681;SDS011;7941;50.966;6.978;2023-03-31T08:38:34;2.67;;;1.37;;
15681;SDS011;7941;50.966;6.978;2023-03-31T08:41:06;4.40;;;1.87;;
15681;SDS011;7941;50.966;6.978;2023-03-31T08:43:39;5.10;;;1.60;;
15681;SDS011;7941;50.966;6.978;2023-03-31T08:46:05;5.63;;;1.83;;
15681;SDS011;7941;50.966;6.978;2023-03-31T08:48:36;5.27;;;1.80;;
15681;SDS011;7941;50.966;6.978;2023-03-31T08:51:13;6.97;;;2.00;;
15681;SDS011;7941;50.966;6.978;2023-03-31T08:53:42;4.70;;;1.67;;
15681;SDS011;7941;50.966;6.978;2023-03-31T08:56:14;4.20;;;1.80;;
15681;SDS011;7941;50.966;6.978;2023-03-31T08:58:45;3.73;;;2.23;;
15681;SDS011;7941;50.966;6.978;2023-03-31T09:06:13;5.37;;;2.10;;
15681;SDS011;7941;50.966;6.978;2023-03-31T09:08:41;6.43;;;2.30;;
15681;SDS011;7941;50.966;6.978;2023-03-31T09:16:20;6.70;;;2.37;;
15681;SDS011;7941;50.966;6.978;2023-03-31T09:18:49;6.77;;;2.37;;
15681;SDS011;7941;50.966;6.978;2023-03-31T09:21:19;9.97;;;2.73;;
15681;SDS011;7941;50.966;6.978;2023-03-31T09:23:52;6.63;;;2.47;;
15681;SDS011;7941;50.966;6.978;2023-03-31T09:26:31;7.47;;;2.60;;
15681;SDS011;7941;50.966;6.978;2023-03-31T09:29:00;6.80;;;2.30;;
15681;SDS011;7941;50.966;6.978;2023-03-31T09:31:30;6.17;;;2.00;;
15681;SDS011;7941;50.966;6.978;2023-03-31T09:33:58;8.17;;;2.50;;
15681;SDS011;7941;50.966;6.978;2023-03-31T09:36:25;5.30;;;2.10;;
15681;SDS011;7941;50.966;6.978;2023-03-31T09:38:53;7.63;;;2.83;;
15681;SDS011;7941;50.966;6.978;2023-03-31T09:41:20;9.37;;;2.87;;
15681;SDS011;7941;50.966;6.978;2023-03-31T09:43:46;9.70;;;2.50;;
15681;SDS011;7941;50.966;6.978;2023-03-31T09:48:41;6.97;;;1.90;;
15681;SDS011;7941;50.966;6.978;2023-03-31T09:51:16;7.40;;;2.20;;
15681;SDS011;7941;50.966;6.978;2023-03-31T09:56:48;6.57;;;2.40;;
15681;SDS011;7941;50.966;6.978;2023-03-31T09:59:38;9.67;;;2.37;;
15681;SDS011;7941;50.966;6.978;2023-03-31T10:02:27;6.73;;;2.40;;
15681;SDS011;7941;50.966;6.978;2023-03-31T10:04:54;7.27;;;2.83;;
15681;SDS011;7941;50.966;6.978;2023-03-31T10:07:22;5.03;;;1.83;;
15681;SDS011;7941;50.966;6.978;2023-03-31T10:09:50;9.17;;;2.40;;
15681;SDS011;7941;50.966;6.978;2023-03-31T10:12:18;4.77;;;1.63;;
15681;SDS011;7941;50.966;6.978;2023-03-31T10:14:53;6.23;;;2.23;;
15681;SDS011;7941;50.966;6.978;2023-03-31T10:17:22;6.60;;;2.83;;
15681;SDS011;7941;50.966;6.978;2023-03-31T10:22:37;5.47;;;2.10;;
15681;SDS011;7941;50.966;6.978;2023-03-31T10:25:09;7.63;;;2.60;;
15681;SDS011;7941;50.966;6.978;2023-03-31T10:27:36;8.40;;;2.23;;
15681;SDS011;7941;50.966;6.978;2023-03-31T10:30:08;9.43;;;3.33;;
15681;SDS011;7941;50.966;6.978;2023-03-31T10:32:38;7.80;;;2.70;;
15681;SDS011;7941;50.966;6.978;2023-03-31T10:35:53;8.70;;;2.60;;
15681;SDS011;7941;50.966;6.978;2023-03-31T10:37:54;7.60;;;2.37;;
15681;SDS011;7941;50.966;6.978;2023-03-31T10:40:22;9.60;;;3.00;;
15681;SDS011;7941;50.966;6.978;2023-03-31T10:42:57;5.23;;;2.40;;
15681;SDS011;7941;50.966;6.978;2023-03-31T10:45:25;6.93;;;2.50;;
15681;SDS011;7941;50.966;6.978;2023-03-31T10:47:52;4.73;;;2.40;;
15681;SDS011;7941;50.966;6.978;2023-03-31T10:50:18;5.97;;;3.20;;
15681;SDS011;7941;50.966;6.978;2023-03-31T10:52:46;7.73;;;3.00;;
15681;SDS011;7941;50.966;6.978;2023-03-31T10:55:13;4.53;;;2.30;;
15681;SDS011;7941;50.966;6.978;2023-03-31T10:57:56;5.63;;;2.30;;
15681;SDS011;7941;50.966;6.978;2023-03-31T11:02:58;5.80;;;2.07;;
15681;SDS011;7941;50.966;6.978;2023-03-31T11:13:12;5.17;;;1.80;;
15681;SDS011;7941;50.966;6.978;2023-03-31T11:21:02;5.27;;;2.10;;
15681;SDS011;7941;50.966;6.978;2023-03-31T11:23:40;6.50;;;2.03;;
15681;SDS011;7941;50.966;6.978;2023-03-31T11:26:12;6.10;;;2.83;;
15681;SDS011;7941;50.966;6.978;2023-03-31T11:29:26;5.30;;;2.10;;
15681;SDS011;7941;50.966;6.978;2023-03-31T11:31:41;3.67;;;1.40;;
15681;SDS011;7941;50.966;6.978;2023-03-31T11:41:48;8.50;;;2.30;;
15681;SDS011;7941;50.966;6.978;2023-03-31T11:44:16;6.70;;;1.80;;
15681;SDS011;7941;50.966;6.978;2023-03-31T11:46:47;3.77;;;1.57;;
15681;SDS011;7941;50.966;6.978;2023-03-31T11:54:16;7.97;;;2.63;;
15681;SDS011;7941;50.966;6.978;2023-03-31T11:56:43;6.40;;;2.10;;
15681;SDS011;7941;50.966;6.978;2023-03-31T11:59:13;6.87;;;2.33;;
15681;SDS011;7941;50.966;6.978;2023-03-31T12:01:47;8.13;;;2.33;;
15681;SDS011;7941;50.966;6.978;2023-03-31T12:06:41;8.90;;;2.70;;
15681;SDS011;7941;50.966;6.978;2023-03-31T12:11:56;9.90;;;3.20;;
15681;SDS011;7941;50.966;6.978;2023-03-31T12:14:30;12.33;;;3.70;;
15681;SDS011;7941;50.966;6.978;2023-03-31T12:17:04;8.07;;;2.50;;
15681;SDS011;7941;50.966;6.978;2023-03-31T12:24:26;9.97;;;3.10;;
15681;SDS011;7941;50.966;6.978;2023-03-31T12:31:45;9.13;;;3.03;;
15681;SDS011;7941;50.966;6.978;2023-03-31T12:34:12;10.80;;;3.27;;
15681;SDS011;7941;50.966;6.978;2023-03-31T12:41:44;6.73;;;2.80;;
15681;SDS011;7941;50.966;6.978;2023-03-31T12:44:28;9.47;;;2.67;;
15681;SDS011;7941;50.966;6.978;2023-03-31T13:02:29;6.17;;;2.20;;
15681;SDS011;7941;50.966;6.978;2023-03-31T13:04:48;5.07;;;2.30;;
15681;SDS011;7941;50.966;6.978;2023-03-31T13:09:55;8.30;;;2.63;;
15681;SDS011;7941;50.966;6.978;2023-03-31T13:12:22;7.70;;;2.60;;
15681;SDS011;7941;50.966;6.978;2023-03-31T13:14:50;10.37;;;2.87;;
15681;SDS011;7941;50.966;6.978;2023-03-31T13:17:20;8.63;;;2.23;;
15681;SDS011;7941;50.966;6.978;2023-03-31T13:19:47;8.27;;;2.40;;
15681;SDS011;7941;50.966;6.978;2023-03-31T13:22:27;7.30;;;2.50;;
15681;SDS011;7941;50.966;6.978;2023-03-31T13:25:23;7.80;;;2.70;;
15681;SDS011;7941;50.966;6.978;2023-03-31T13:27:47;8.37;;;2.77;;
15681;SDS011;7941;50.966;6.978;2023-03-31T13:33:04;12.33;;;3.83;;
15681;SDS011;7941;50.966;6.978;2023-03-31T13:35:33;7.70;;;2.23;;
15681;SDS011;7941;50.966;6.978;2023-03-31T13:45:56;7.27;;;2.00;;
15681;SDS011;7941;50.966;6.978;2023-03-31T13:59:07;8.93;;;2.60;;
15681;SDS011;7941;50.966;6.978;2023-03-31T14:01:44;4.77;;;1.90;;
15681;SDS011;7941;50.966;6.978;2023-03-31T14:06:59;6.07;;;2.63;;
15681;SDS011;7941;50.966;6.978;2023-03-31T14:09:31;7.33;;;2.40;;
15681;SDS011;7941;50.966;6.978;2023-03-31T14:11:58;7.57;;;2.40;;
15681;SDS011;7941;50.966;6.978;2023-03-31T14:14:24;7.73;;;2.60;;
15681;SDS011;7941;50.966;6.978;2023-03-31T14:16:52;5.40;;;2.10;;
15681;SDS011;7941;50.966;6.978;2023-03-31T14:24:54;4.63;;;1.60;;
15681;SDS011;7941;50.966;6.978;2023-03-31T14:29:56;4.63;;;1.60;;
15681;SDS011;7941;50.966;6.978;2023-03-31T14:32:29;5.90;;;1.63;;
15681;SDS011;7941;50.966;6.978;2023-03-31T14:37:28;4.17;;;1.73;;
15681;SDS011;7941;50.966;6.978;2023-03-31T14:39:56;3.50;;;1.37;;
15681;SDS011;7941;50.966;6.978;2023-03-31T14:42:27;7.83;;;1.53;;
15681;SDS011;7941;50.966;6.978;2023-03-31T14:44:55;3.50;;;1.43;;
15681;SDS011;7941;50.966;6.978;2023-03-31T14:47:25;4.33;;;1.57;;
15681;SDS011;7941;50.966;6.978;2023-03-31T14:50:15;3.40;;;1.90;;
15681;SDS011;7941;50.966;6.978;2023-03-31T14:52:51;2.97;;;1.57;;
15681;SDS011;7941;50.966;6.978;2023-03-31T14:55:19;3.73;;;1.57;;
15681;SDS011;7941;50.966;6.978;2023-03-31T14:57:47;4.77;;;1.77;;
15681;SDS011;7941;50.966;6.978;2023-03-31T15:00:15;3.57;;;1.37;;
15681;SDS011;7941;50.966;6.978;2023-03-31T15:02:45;5.47;;;1.60;;
15681;SDS011;7941;50.966;6.978;2023-03-31T15:05:31;5.50;;;1.70;;
15681;SDS011;7941;50.966;6.978;2023-03-31T15:08:31;6.73;;;1.80;;
15681;SDS011;7941;50.966;6.978;2023-03-31T15:10:52;5.20;;;1.77;;
15681;SDS011;7941;50.966;6.978;2023-03-31T15:13:42;5.07;;;1.93;;
15681;SDS011;7941;50.966;6.978;2023-03-31T15:18:55;6.17;;;2.10;;
15681;SDS011;7941;50.966;6.978;2023-03-31T15:21:25;5.73;;;1.80;;
15681;SDS011;7941;50.966;6.978;2023-03-31T15:23:53;6.30;;;1.73;;
15681;SDS011;7941;50.966;6.978;2023-03-31T15:26:20;6.73;;;2.27;;
15681;SDS011;7941;50.966;6.978;2023-03-31T15:29:01;8.23;;;2.30;;
15681;SDS011;7941;50.966;6.978;2023-03-31T15:31:28;5.93;;;2.33;;
15681;SDS011;7941;50.966;6.978;2023-03-31T15:33:56;3.73;;;1.60;;
15681;SDS011;7941;50.966;6.978;2023-03-31T15:36:31;6.13;;;1.93;;
15681;SDS011;7941;50.966;6.978;2023-03-31T15:38:57;5.77;;;2.03;;
15681;SDS011;7941;50.966;6.978;2023-03-31T15:41:27;5.63;;;1.97;;
15681;SDS011;7941;50.966;6.978;2023-03-31T15:44:05;7.13;;;1.90;;
15681;SDS011;7941;50.966;6.978;2023-03-31T15:49:04;7.40;;;1.77;;
15681;SDS011;7941;50.966;6.978;2023-03-31T15:51:38;4.10;;;1.73;;
15681;SDS011;7941;50.966;6.978;2023-03-31T15:54:30;5.97;;;2.40;;
15681;SDS011;7941;50.966;6.978;2023-03-31T15:57:04;6.93;;;2.53;;
15681;SDS011;7941;50.966;6.978;2023-03-31T15:59:42;5.00;;;2.37;;
15681;SDS011;7941;50.966;6.978;2023-03-31T16:02:14;7.17;;;3.60;;
15681;SDS011;7941;50.966;6.978;2023-03-31T16:04:41;6.47;;;3.07;;
15681;SDS011;7941;50.966;6.978;2023-03-31T16:07:18;7.27;;;3.43;;
15681;SDS011;7941;50.966;6.978;2023-03-31T16:09:47;6.93;;;2.53;;
15681;SDS011;7941;50.966;6.978;2023-03-31T16:12:19;5.20;;;1.90;;
15681;SDS011;7941;50.966;6.978;2023-03-31T16:14:53;5.93;;;2.03;;
15681;SDS011;7941;50.966;6.978;2023-03-31T16:17:30;4.87;;;1.67;;
15681;SDS011;7941;50.966;6.978;2023-03-31T16:19:58;3.83;;;1.93;;
15681;SDS011;7941;50.966;6.978;2023-03-31T16:22:31;6.57;;;1.67;;
15681;SDS011;7941;50.966;6.978;2023-03-31T16:24:59;5.10;;;1.90;;
15681;SDS011;7941;50.966;6.978;2023-03-31T16:27:26;6.27;;;2.20;;
15681;SDS011;7941;50.966;6.978;2023-03-31T16:30:04;4.27;;;2.47;;
15681;SDS011;7941;50.966;6.978;2023-03-31T16:32:30;6.23;;;1.60;;
15681;SDS011;7941;50.966;6.978;2023-03-31T16:34:58;3.23;;;1.30;;
15681;SDS011;7941;50.966;6.978;2023-03-31T16:37:25;5.27;;;2.00;;
15681;SDS011;7941;50.966;6.978;2023-03-31T16:39:51;2.77;;;1.60;;
15681;SDS011;7941;50.966;6.978;2023-03-31T16:42:18;5.03;;;1.60;;
15681;SDS011;7941;50.966;6.978;2023-03-31T16:44:45;5.07;;;1.90;;
15681;SDS011;7941;50.966;6.978;2023-03-31T16:47:11;4.50;;;1.53;;
15681;SDS011;7941;50.966;6.978;2023-03-31T16:49:38;5.87;;;1.70;;
15681;SDS011;7941;50.966;6.978;2023-03-31T16:52:04;3.90;;;1.60;;
15681;SDS011;7941;50.966;6.978;2023-03-31T16:54:32;7.83;;;1.53;;
15681;SDS011;7941;50.966;6.978;2023-03-31T16:56:59;4.30;;;1.83;;
15681;SDS011;7941;50.966;6.978;2023-03-31T16:59:26;5.60;;;2.00;;
15681;SDS011;7941;50.966;6.978;2023-03-31T17:01:52;4.43;;;1.80;;
15681;SDS011;7941;50.966;6.978;2023-03-31T17:04:18;5.93;;;2.40;;
15681;SDS011;7941;50.966;6.978;2023-03-31T17:06:44;4.73;;;1.97;;
15681;SDS011;7941;50.966;6.978;2023-03-31T17:09:11;3.70;;;1.90;;
15681;SDS011;7941;50.966;6.978;2023-03-31T17:11:38;3.87;;;1.90;;
15681;SDS011;7941;50.966;6.978;2023-03-31T17:14:05;4.90;;;2.63;;
15681;SDS011;7941;50.966;6.978;2023-03-31T17:16:31;5.00;;;2.30;;
15681;SDS011;7941;50.966;6.978;2023-03-31T17:18:57;6.93;;;2.70;;
15681;SDS011;7941;50.966;6.978;2023-03-31T17:21:24;6.03;;;2.53;;
15681;SDS011;7941;50.966;6.978;2023-03-31T17:23:50;9.43;;;2.60;;
15681;SDS011;7941;50.966;6.978;2023-03-31T17:26:16;4.80;;;2.87;;
15681;SDS011;7941;50.966;6.978;2023-03-31T17:28:43;3.53;;;1.90;;
15681;SDS011;7941;50.966;6.978;2023-03-31T17:31:13;5.13;;;1.83;;
15681;SDS011;7941;50.966;6.978;2023-03-31T17:33:40;2.83;;;1.40;;
15681;SDS011;7941;50.966;6.978;2023-03-31T17:36:08;4.97;;;1.47;;
15681;SDS011;7941;50.966;6.978;2023-03-31T17:38:34;4.80;;;1.43;;
15681;SDS011;7941;50.966;6.978;2023-03-31T17:41:01;4.90;;;1.70;;
15681;SDS011;7941;50.966;6.978;2023-03-31T17:43:27;3.53;;;1.77;;
15681;SDS011;7941;50.966;6.978;2023-03-31T17:46:03;2.47;;;1.53;;
15681;SDS011;7941;50.966;6.978;2023-03-31T17:48:31;3.57;;;1.57;;
15681;SDS011;7941;50.966;6.978;2023-03-31T17:51:04;4.73;;;1.70;;
15681;SDS011;7941;50.966;6.978;2023-03-31T17:53:32;5.53;;;1.73;;
15681;SDS011;7941;50.966;6.978;2023-03-31T17:55:59;3.53;;;1.30;;
15681;SDS011;7941;50.966;6.978;2023-03-31T17:58:25;3.80;;;1.60;;
15681;SDS011;7941;50.966;6.978;2023-03-31T18:00:52;3.10;;;1.57;;
15681;SDS011;7941;50.966;6.978;2023-03-31T18:03:18;2.73;;;1.07;;
15681;SDS011;7941;50.966;6.978;2023-03-31T18:05:45;6.60;;;1.40;;
15681;SDS011;7941;50.966;6.978;2023-03-31T18:08:11;6.23;;;1.70;;
15681;SDS011;7941;50.966;6.978;2023-03-31T18:10:37;4.10;;;1.60;;
15681;SDS011;7941;50.966;6.978;2023-03-31T18:13:04;4.87;;;2.00;;
15681;SDS011;7941;50.966;6.978;2023-03-31T18:15:30;3.97;;;1.70;;